sensor_id;sensor_type;location;lat;lon;timestamp;P1;durP1;ratioP1;P2;durP2;ratioP2
83099;SDS011;72972;51.784;4.660;2024-02-26T00:01:41;1.63;;;1.27;;
83099;SDS011;72972;51.784;4.660;2024-02-26T00:04:09;1.20;;;1.10;;
83099;SDS011;72972;51.784;4.660;2024-02-26T00:06:35;1.45;;;1.30;;
83099;SDS011;72972;51.784;4.660;2024-02-26T00:09:00;1.48;;;1.38;;
83099;SDS011;72972;51.784;4.660;2024-02-26T00:11:27;1.30;;;1.20;;
83099;SDS011;72972;51.784;4.660;2024-02-26T00:13:53;1.55;;;1.45;;
83099;SDS011;72972;51.784;4.660;2024-02-26T00:16:19;1.20;;;1.10;;
83099;SDS011;72972;51.784;4.660;2024-02-26T00:18:45;1.10;;;1.00;;
83099;SDS011;72972;51.784;4.660;2024-02-26T00:21:11;2.53;;;1.40;;
83099;SDS011;72972;51.784;4.660;2024-02-26T00:23:37;1.30;;;1.20;;
83099;SDS011;72972;51.784;4.660;2024-02-26T00:26:02;1.75;;;1.55;;
83099;SDS011;72972;51.784;4.660;2024-02-26T00:28:29;1.40;;;1.30;;
83099;SDS011;72972;51.784;4.660;2024-02-26T00:30:54;1.50;;;1.38;;
83099;SDS011;72972;51.784;4.660;2024-02-26T00:33:21;1.20;;;1.10;;
83099;SDS011;72972;51.784;4.660;2024-02-26T00:35:48;1.35;;;1.25;;
83099;SDS011;72972;51.784;4.660;2024-02-26T00:38:14;1.23;;;1.13;;
83099;SDS011;72972;51.784;4.660;2024-02-26T00:40:40;1.30;;;1.20;;
83099;SDS011;72972;51.784;4.660;2024-02-26T00:43:08;1.35;;;1.25;;
83099;SDS011;72972;51.784;4.660;2024-02-26T00:45:34;1.48;;;1.38;;
83099;SDS011;72972;51.784;4.660;2024-02-26T00:48:00;1.83;;;1.23;;
83099;SDS011;72972;51.784;4.660;2024-02-26T00:50:34;1.30;;;1.20;;
83099;SDS011;72972;51.784;4.660;2024-02-26T00:53:01;1.35;;;1.25;;
83099;SDS011;72972;51.784;4.660;2024-02-26T00:55:27;1.10;;;1.05;;
83099;SDS011;72972;51.784;4.660;2024-02-26T00:57:53;1.30;;;1.20;;
83099;SDS011;72972;51.784;4.660;2024-02-26T01:00:18;1.42;;;1.33;;
83099;SDS011;72972;51.784;4.660;2024-02-26T01:02:44;1.48;;;1.38;;
83099;SDS011;72972;51.784;4.660;2024-02-26T01:05:13;1.30;;;1.20;;
83099;SDS011;72972;51.784;4.660;2024-02-26T01:07:39;1.55;;;1.13;;
83099;SDS011;72972;51.784;4.660;2024-02-26T01:10:06;1.30;;;1.20;;
83099;SDS011;72972;51.784;4.660;2024-02-26T01:12:33;1.35;;;1.25;;
83099;SDS011;72972;51.784;4.660;2024-02-26T01:14:59;1.80;;;1.10;;
83099;SDS011;72972;51.784;4.660;2024-02-26T01:17:26;1.52;;;1.38;;
83099;SDS011;72972;51.784;4.660;2024-02-26T01:19:52;1.65;;;1.40;;
83099;SDS011;72972;51.784;4.660;2024-02-26T01:22:19;1.40;;;1.30;;
83099;SDS011;72972;51.784;4.660;2024-02-26T01:24:44;1.52;;;1.33;;
83099;SDS011;72972;51.784;4.660;2024-02-26T01:27:10;1.35;;;1.25;;
83099;SDS011;72972;51.784;4.660;2024-02-26T01:29:36;1.45;;;1.35;;
83099;SDS011;72972;51.784;4.660;2024-02-26T01:32:01;1.50;;;1.27;;
83099;SDS011;72972;51.784;4.660;2024-02-26T01:34:30;1.30;;;1.20;;
83099;SDS011;72972;51.784;4.660;2024-02-26T01:36:55;1.23;;;1.13;;
83099;SDS011;72972;51.784;4.660;2024-02-26T01:39:21;1.42;;;1.33;;
83099;SDS011;72972;51.784;4.660;2024-02-26T01:41:47;1.08;;;0.98;;
83099;SDS011;72972;51.784;4.660;2024-02-26T01:44:13;1.20;;;1.10;;
83099;SDS011;72972;51.784;4.660;2024-02-26T01:46:39;1.20;;;1.10;;
83099;SDS011;72972;51.784;4.660;2024-02-26T01:49:05;1.30;;;1.15;;
83099;SDS011;72972;51.784;4.660;2024-02-26T01:51:33;1.23;;;1.13;;
83099;SDS011;72972;51.784;4.660;2024-02-26T01:54:00;1.98;;;1.45;;
83099;SDS011;72972;51.784;4.660;2024-02-26T01:56:28;1.10;;;1.00;;
83099;SDS011;72972;51.784;4.660;2024-02-26T01:58:59;1.42;;;1.33;;
83099;SDS011;72972;51.784;4.660;2024-02-26T02:01:25;0.95;;;0.93;;
83099;SDS011;72972;51.784;4.660;2024-02-26T02:03:52;1.30;;;1.20;;
83099;SDS011;72972;51.784;4.660;2024-02-26T02:06:19;4.97;;;1.55;;
83099;SDS011;72972;51.784;4.660;2024-02-26T02:08:45;1.38;;;1.27;;
83099;SDS011;72972;51.784;4.660;2024-02-26T02:11:11;1.30;;;1.20;;
83099;SDS011;72972;51.784;4.660;2024-02-26T02:13:38;1.23;;;1.13;;
83099;SDS011;72972;51.784;4.660;2024-02-26T02:16:04;1.60;;;1.30;;
83099;SDS011;72972;51.784;4.660;2024-02-26T02:18:29;1.33;;;1.23;;
83099;SDS011;72972;51.784;4.660;2024-02-26T02:20:55;1.58;;;1.30;;
83099;SDS011;72972;51.784;4.660;2024-02-26T02:23:24;1.63;;;1.30;;
83099;SDS011;72972;51.784;4.660;2024-02-26T02:25:50;1.40;;;1.30;;
83099;SDS011;72972;51.784;4.660;2024-02-26T02:28:16;1.20;;;1.10;;
83099;SDS011;72972;51.784;4.660;2024-02-26T02:30:42;1.40;;;1.30;;
83099;SDS011;72972;51.784;4.660;2024-02-26T02:33:08;1.60;;;1.50;;
83099;SDS011;72972;51.784;4.660;2024-02-26T02:35:34;1.73;;;1.45;;
83099;SDS011;72972;51.784;4.660;2024-02-26T02:38:00;2.50;;;1.25;;
83099;SDS011;72972;51.784;4.660;2024-02-26T02:40:26;1.50;;;1.40;;
83099;SDS011;72972;51.784;4.660;2024-02-26T02:42:51;1.38;;;1.20;;
83099;SDS011;72972;51.784;4.660;2024-02-26T02:45:17;1.50;;;1.40;;
83099;SDS011;72972;51.784;4.660;2024-02-26T02:47:42;1.42;;;1.33;;
83099;SDS011;72972;51.784;4.660;2024-02-26T02:50:08;1.90;;;1.40;;
83099;SDS011;72972;51.784;4.660;2024-02-26T02:52:34;1.60;;;1.50;;
83099;SDS011;72972;51.784;4.660;2024-02-26T02:55:00;1.60;;;1.40;;
83099;SDS011;72972;51.784;4.660;2024-02-26T02:57:27;1.55;;;1.40;;
83099;SDS011;72972;51.784;4.660;2024-02-26T02:59:54;1.55;;;1.45;;
83099;SDS011;72972;51.784;4.660;2024-02-26T03:02:19;1.20;;;1.10;;
83099;SDS011;72972;51.784;4.660;2024-02-26T03:04:45;1.70;;;1.50;;
83099;SDS011;72972;51.784;4.660;2024-02-26T03:07:11;1.50;;;1.40;;
83099;SDS011;72972;51.784;4.660;2024-02-26T03:09:36;2.22;;;1.60;;
83099;SDS011;72972;51.784;4.660;2024-02-26T03:12:02;1.95;;;1.60;;
83099;SDS011;72972;51.784;4.660;2024-02-26T03:14:28;1.63;;;1.52;;
83099;SDS011;72972;51.784;4.660;2024-02-26T03:16:54;1.63;;;1.52;;
83099;SDS011;72972;51.784;4.660;2024-02-26T03:19:20;1.60;;;1.50;;
83099;SDS011;72972;51.784;4.660;2024-02-26T03:21:46;1.55;;;1.45;;
83099;SDS011;72972;51.784;4.660;2024-02-26T03:24:11;1.30;;;1.20;;
83099;SDS011;72972;51.784;4.660;2024-02-26T03:26:37;1.42;;;1.33;;
83099;SDS011;72972;51.784;4.660;2024-02-26T03:29:03;2.13;;;1.88;;
83099;SDS011;72972;51.784;4.660;2024-02-26T03:31:29;1.55;;;1.40;;
83099;SDS011;72972;51.784;4.660;2024-02-26T03:33:56;2.08;;;1.70;;
83099;SDS011;72972;51.784;4.660;2024-02-26T03:36:21;1.90;;;1.60;;
83099;SDS011;72972;51.784;4.660;2024-02-26T03:38:50;1.83;;;1.70;;
83099;SDS011;72972;51.784;4.660;2024-02-26T03:41:15;1.70;;;1.60;;
83099;SDS011;72972;51.784;4.660;2024-02-26T03:43:41;1.42;;;1.30;;
83099;SDS011;72972;51.784;4.660;2024-02-26T03:46:07;1.85;;;1.73;;
83099;SDS011;72972;51.784;4.660;2024-02-26T03:48:34;1.58;;;1.48;;
83099;SDS011;72972;51.784;4.660;2024-02-26T03:51:00;1.67;;;1.58;;
83099;SDS011;72972;51.784;4.660;2024-02-26T03:53:26;1.67;;;1.58;;
83099;SDS011;72972;51.784;4.660;2024-02-26T03:55:52;1.75;;;1.55;;
83099;SDS011;72972;51.784;4.660;2024-02-26T03:58:17;1.45;;;1.35;;
83099;SDS011;72972;51.784;4.660;2024-02-26T04:00:43;1.52;;;1.42;;
83099;SDS011;72972;51.784;4.660;2024-02-26T04:03:09;1.75;;;1.65;;
83099;SDS011;72972;51.784;4.660;2024-02-26T04:05:35;1.80;;;1.45;;
83099;SDS011;72972;51.784;4.660;2024-02-26T04:08:01;2.05;;;1.85;;
83099;SDS011;72972;51.784;4.660;2024-02-26T04:10:26;2.50;;;1.50;;
83099;SDS011;72972;51.784;4.660;2024-02-26T04:12:52;2.00;;;1.80;;
83099;SDS011;72972;51.784;4.660;2024-02-26T04:15:18;1.55;;;1.45;;
83099;SDS011;72972;51.784;4.660;2024-02-26T04:17:44;2.35;;;1.50;;
83099;SDS011;72972;51.784;4.660;2024-02-26T04:20:14;1.83;;;1.60;;
83099;SDS011;72972;51.784;4.660;2024-02-26T04:22:41;1.50;;;1.40;;
83099;SDS011;72972;51.784;4.660;2024-02-26T04:25:07;1.85;;;1.70;;
83099;SDS011;72972;51.784;4.660;2024-02-26T04:27:33;1.90;;;1.70;;
83099;SDS011;72972;51.784;4.660;2024-02-26T04:29:59;1.98;;;1.80;;
83099;SDS011;72972;51.784;4.660;2024-02-26T04:32:24;1.52;;;1.42;;
83099;SDS011;72972;51.784;4.660;2024-02-26T04:34:50;1.58;;;1.48;;
83099;SDS011;72972;51.784;4.660;2024-02-26T04:37:16;2.05;;;1.85;;
83099;SDS011;72972;51.784;4.660;2024-02-26T04:39:42;1.80;;;1.58;;
83099;SDS011;72972;51.784;4.660;2024-02-26T04:42:07;1.55;;;1.30;;
83099;SDS011;72972;51.784;4.660;2024-02-26T04:44:33;1.60;;;1.40;;
83099;SDS011;72972;51.784;4.660;2024-02-26T04:46:59;1.60;;;1.50;;
83099;SDS011;72972;51.784;4.660;2024-02-26T04:49:26;1.50;;;1.40;;
83099;SDS011;72972;51.784;4.660;2024-02-26T04:51:52;2.22;;;1.88;;
83099;SDS011;72972;51.784;4.660;2024-02-26T04:54:19;1.42;;;1.33;;
83099;SDS011;72972;51.784;4.660;2024-02-26T04:56:45;1.73;;;1.42;;
83099;SDS011;72972;51.784;4.660;2024-02-26T04:59:11;1.40;;;1.30;;
83099;SDS011;72972;51.784;4.660;2024-02-26T05:01:37;1.75;;;1.65;;
83099;SDS011;72972;51.784;4.660;2024-02-26T05:04:03;2.08;;;1.75;;
83099;SDS011;72972;51.784;4.660;2024-02-26T05:06:29;1.60;;;1.50;;
83099;SDS011;72972;51.784;4.660;2024-02-26T05:08:54;1.85;;;1.50;;
83099;SDS011;72972;51.784;4.660;2024-02-26T05:11:20;1.70;;;1.60;;
83099;SDS011;72972;51.784;4.660;2024-02-26T05:13:47;1.60;;;1.45;;
83099;SDS011;72972;51.784;4.660;2024-02-26T05:16:13;1.75;;;1.63;;
83099;SDS011;72972;51.784;4.660;2024-02-26T05:18:39;1.60;;;1.50;;
83099;SDS011;72972;51.784;4.660;2024-02-26T05:21:05;1.95;;;1.75;;
83099;SDS011;72972;51.784;4.660;2024-02-26T05:23:31;2.17;;;1.30;;
83099;SDS011;72972;51.784;4.660;2024-02-26T05:25:56;1.75;;;1.60;;
83099;SDS011;72972;51.784;4.660;2024-02-26T05:28:22;1.60;;;1.40;;
83099;SDS011;72972;51.784;4.660;2024-02-26T05:30:48;1.60;;;1.50;;
83099;SDS011;72972;51.784;4.660;2024-02-26T05:33:13;2.08;;;1.67;;
83099;SDS011;72972;51.784;4.660;2024-02-26T05:35:39;1.45;;;1.35;;
83099;SDS011;72972;51.784;4.660;2024-02-26T05:38:05;1.60;;;1.50;;
83099;SDS011;72972;51.784;4.660;2024-02-26T05:40:31;2.00;;;1.80;;
83099;SDS011;72972;51.784;4.660;2024-02-26T05:42:57;1.70;;;1.60;;
83099;SDS011;72972;51.784;4.660;2024-02-26T05:45:23;1.65;;;1.55;;
83099;SDS011;72972;51.784;4.660;2024-02-26T05:47:48;1.80;;;1.65;;
83099;SDS011;72972;51.784;4.660;2024-02-26T05:50:15;1.63;;;1.50;;
83099;SDS011;72972;51.784;4.660;2024-02-26T05:52:41;1.70;;;1.60;;
83099;SDS011;72972;51.784;4.660;2024-02-26T05:55:07;1.65;;;1.55;;
83099;SDS011;72972;51.784;4.660;2024-02-26T05:57:33;2.00;;;1.65;;
83099;SDS011;72972;51.784;4.660;2024-02-26T05:59:59;2.53;;;1.50;;
83099;SDS011;72972;51.784;4.660;2024-02-26T06:02:45;1.98;;;1.65;;
83099;SDS011;72972;51.784;4.660;2024-02-26T06:05:11;1.90;;;1.73;;
83099;SDS011;72972;51.784;4.660;2024-02-26T06:07:36;1.58;;;1.48;;
83099;SDS011;72972;51.784;4.660;2024-02-26T06:10:02;1.80;;;1.48;;
83099;SDS011;72972;51.784;4.660;2024-02-26T06:12:29;1.50;;;1.33;;
83099;SDS011;72972;51.784;4.660;2024-02-26T06:14:56;1.70;;;1.60;;
83099;SDS011;72972;51.784;4.660;2024-02-26T06:17:23;2.70;;;1.25;;
83099;SDS011;72972;51.784;4.660;2024-02-26T06:19:48;1.50;;;1.40;;
83099;SDS011;72972;51.784;4.660;2024-02-26T06:22:14;2.08;;;1.80;;
83099;SDS011;72972;51.784;4.660;2024-02-26T06:24:39;1.48;;;1.38;;
83099;SDS011;72972;51.784;4.660;2024-02-26T06:27:05;2.00;;;1.50;;
83099;SDS011;72972;51.784;4.660;2024-02-26T06:29:31;1.70;;;1.60;;
83099;SDS011;72972;51.784;4.660;2024-02-26T06:31:57;1.50;;;1.40;;
83099;SDS011;72972;51.784;4.660;2024-02-26T06:34:22;1.70;;;1.60;;
83099;SDS011;72972;51.784;4.660;2024-02-26T06:36:48;2.20;;;2.00;;
83099;SDS011;72972;51.784;4.660;2024-02-26T06:39:14;2.08;;;1.60;;
83099;SDS011;72972;51.784;4.660;2024-02-26T06:41:41;2.40;;;1.70;;
83099;SDS011;72972;51.784;4.660;2024-02-26T06:44:06;1.92;;;1.65;;
83099;SDS011;72972;51.784;4.660;2024-02-26T06:46:32;2.10;;;1.90;;
83099;SDS011;72972;51.784;4.660;2024-02-26T06:48:58;1.70;;;1.50;;
83099;SDS011;72972;51.784;4.660;2024-02-26T06:51:23;1.60;;;1.50;;
83099;SDS011;72972;51.784;4.660;2024-02-26T06:53:49;2.28;;;1.92;;
83099;SDS011;72972;51.784;4.660;2024-02-26T06:56:15;1.52;;;1.38;;
83099;SDS011;72972;51.784;4.660;2024-02-26T06:58:40;1.90;;;1.70;;
83099;SDS011;72972;51.784;4.660;2024-02-26T07:01:06;1.60;;;1.50;;
83099;SDS011;72972;51.784;4.660;2024-02-26T07:03:33;1.73;;;1.60;;
83099;SDS011;72972;51.784;4.660;2024-02-26T07:05:59;1.92;;;1.73;;
83099;SDS011;72972;51.784;4.660;2024-02-26T07:08:25;1.80;;;1.60;;
83099;SDS011;72972;51.784;4.660;2024-02-26T07:10:51;2.20;;;2.00;;
83099;SDS011;72972;51.784;4.660;2024-02-26T07:13:16;1.60;;;1.50;;
83099;SDS011;72972;51.784;4.660;2024-02-26T07:15:42;2.00;;;1.60;;
83099;SDS011;72972;51.784;4.660;2024-02-26T07:18:08;2.30;;;2.10;;
83099;SDS011;72972;51.784;4.660;2024-02-26T07:20:35;2.20;;;2.00;;
83099;SDS011;72972;51.784;4.660;2024-02-26T07:23:01;2.00;;;1.80;;
83099;SDS011;72972;51.784;4.660;2024-02-26T07:25:28;1.75;;;1.60;;
83099;SDS011;72972;51.784;4.660;2024-02-26T07:27:54;2.33;;;2.13;;
83099;SDS011;72972;51.784;4.660;2024-02-26T07:30:19;2.20;;;2.00;;
83099;SDS011;72972;51.784;4.660;2024-02-26T07:32:45;2.50;;;2.30;;
83099;SDS011;72972;51.784;4.660;2024-02-26T07:35:11;2.60;;;2.15;;
83099;SDS011;72972;51.784;4.660;2024-02-26T07:37:36;2.28;;;2.08;;
83099;SDS011;72972;51.784;4.660;2024-02-26T07:40:03;2.42;;;2.20;;
83099;SDS011;72972;51.784;4.660;2024-02-26T07:42:29;2.50;;;2.10;;
83099;SDS011;72972;51.784;4.660;2024-02-26T07:44:54;2.20;;;2.00;;
83099;SDS011;72972;51.784;4.660;2024-02-26T07:47:20;2.22;;;1.90;;
83099;SDS011;72972;51.784;4.660;2024-02-26T07:49:46;2.40;;;2.20;;
83099;SDS011;72972;51.784;4.660;2024-02-26T07:52:12;2.72;;;2.30;;
83099;SDS011;72972;51.784;4.660;2024-02-26T07:54:38;2.20;;;2.00;;
83099;SDS011;72972;51.784;4.660;2024-02-26T07:57:03;2.47;;;2.03;;
83099;SDS011;72972;51.784;4.660;2024-02-26T07:59:30;3.10;;;2.47;;
83099;SDS011;72972;51.784;4.660;2024-02-26T08:01:59;2.30;;;2.10;;
83099;SDS011;72972;51.784;4.660;2024-02-26T08:04:28;2.85;;;2.53;;
83099;SDS011;72972;51.784;4.660;2024-02-26T08:06:54;2.35;;;2.15;;
83099;SDS011;72972;51.784;4.660;2024-02-26T08:09:19;2.80;;;2.60;;
83099;SDS011;72972;51.784;4.660;2024-02-26T08:11:45;3.17;;;2.63;;
83099;SDS011;72972;51.784;4.660;2024-02-26T08:14:11;2.83;;;2.53;;
83099;SDS011;72972;51.784;4.660;2024-02-26T08:16:37;2.80;;;2.50;;
83099;SDS011;72972;51.784;4.660;2024-02-26T08:19:02;2.95;;;2.63;;
83099;SDS011;72972;51.784;4.660;2024-02-26T08:21:28;3.28;;;2.72;;
83099;SDS011;72972;51.784;4.660;2024-02-26T08:23:54;2.65;;;2.38;;
83099;SDS011;72972;51.784;4.660;2024-02-26T08:26:20;2.95;;;2.65;;
83099;SDS011;72972;51.784;4.660;2024-02-26T08:28:47;3.10;;;2.60;;
83099;SDS011;72972;51.784;4.660;2024-02-26T08:31:14;3.47;;;3.17;;
83099;SDS011;72972;51.784;4.660;2024-02-26T08:33:40;3.03;;;2.72;;
83099;SDS011;72972;51.784;4.660;2024-02-26T08:36:06;3.42;;;3.13;;
83099;SDS011;72972;51.784;4.660;2024-02-26T08:38:32;3.72;;;3.13;;
83099;SDS011;72972;51.784;4.660;2024-02-26T08:41:00;3.60;;;3.08;;
83099;SDS011;72972;51.784;4.660;2024-02-26T08:43:29;3.50;;;3.20;;
83099;SDS011;72972;51.784;4.660;2024-02-26T08:45:56;3.97;;;3.55;;
83099;SDS011;72972;51.784;4.660;2024-02-26T08:48:22;3.72;;;3.42;;
83099;SDS011;72972;51.784;4.660;2024-02-26T08:50:48;4.13;;;3.72;;
83099;SDS011;72972;51.784;4.660;2024-02-26T08:53:14;3.58;;;3.05;;
83099;SDS011;72972;51.784;4.660;2024-02-26T08:55:39;4.63;;;3.20;;
83099;SDS011;72972;51.784;4.660;2024-02-26T08:58:05;4.03;;;3.58;;
83099;SDS011;72972;51.784;4.660;2024-02-26T09:00:31;4.35;;;3.95;;
83099;SDS011;72972;51.784;4.660;2024-02-26T09:02:56;3.20;;;2.83;;
83099;SDS011;72972;51.784;4.660;2024-02-26T09:05:22;3.13;;;2.72;;
83099;SDS011;72972;51.784;4.660;2024-02-26T09:07:48;3.75;;;3.42;;
83099;SDS011;72972;51.784;4.660;2024-02-26T09:10:13;3.40;;;3.10;;
83099;SDS011;72972;51.784;4.660;2024-02-26T09:12:40;3.00;;;2.70;;
83099;SDS011;72972;51.784;4.660;2024-02-26T09:15:06;3.53;;;3.22;;
83099;SDS011;72972;51.784;4.660;2024-02-26T09:17:32;3.50;;;3.20;;
83099;SDS011;72972;51.784;4.660;2024-02-26T09:19:58;3.17;;;2.85;;
83099;SDS011;72972;51.784;4.660;2024-02-26T09:22:24;3.40;;;2.95;;
83099;SDS011;72972;51.784;4.660;2024-02-26T09:24:49;2.80;;;2.50;;
83099;SDS011;72972;51.784;4.660;2024-02-26T09:27:17;2.97;;;2.67;;
83099;SDS011;72972;51.784;4.660;2024-02-26T09:29:43;3.22;;;2.92;;
83099;SDS011;72972;51.784;4.660;2024-02-26T09:32:09;2.85;;;2.60;;
83099;SDS011;72972;51.784;4.660;2024-02-26T09:34:34;2.90;;;2.60;;
83099;SDS011;72972;51.784;4.660;2024-02-26T09:37:00;3.47;;;2.60;;
83099;SDS011;72972;51.784;4.660;2024-02-26T09:39:26;2.47;;;2.17;;
83099;SDS011;72972;51.784;4.660;2024-02-26T09:41:53;2.78;;;2.58;;
83099;SDS011;72972;51.784;4.660;2024-02-26T09:44:19;2.40;;;2.20;;
83099;SDS011;72972;51.784;4.660;2024-02-26T09:46:48;2.60;;;2.40;;
83099;SDS011;72972;51.784;4.660;2024-02-26T09:49:18;2.65;;;2.45;;
83099;SDS011;72972;51.784;4.660;2024-02-26T09:51:47;2.75;;;2.53;;
83099;SDS011;72972;51.784;4.660;2024-02-26T09:54:15;2.17;;;1.95;;
83099;SDS011;72972;51.784;4.660;2024-02-26T09:56:42;2.40;;;1.83;;
83099;SDS011;72972;51.784;4.660;2024-02-26T09:59:12;2.80;;;2.10;;
83099;SDS011;72972;51.784;4.660;2024-02-26T10:01:40;2.30;;;2.10;;
83099;SDS011;72972;51.784;4.660;2024-02-26T10:04:08;1.92;;;1.75;;
83099;SDS011;72972;51.784;4.660;2024-02-26T10:06:36;2.08;;;1.88;;
83099;SDS011;72972;51.784;4.660;2024-02-26T10:09:03;2.22;;;2.03;;
83099;SDS011;72972;51.784;4.660;2024-02-26T10:11:31;2.05;;;1.85;;
83099;SDS011;72972;51.784;4.660;2024-02-26T10:13:57;2.00;;;1.80;;
83099;SDS011;72972;51.784;4.660;2024-02-26T10:16:24;2.22;;;1.98;;
83099;SDS011;72972;51.784;4.660;2024-02-26T10:18:52;2.30;;;2.10;;
83099;SDS011;72972;51.784;4.660;2024-02-26T10:21:26;2.47;;;2.03;;
83099;SDS011;72972;51.784;4.660;2024-02-26T10:23:53;2.10;;;1.90;;
83099;SDS011;72972;51.784;4.660;2024-02-26T10:26:19;2.00;;;1.80;;
83099;SDS011;72972;51.784;4.660;2024-02-26T10:28:46;2.42;;;2.03;;
83099;SDS011;72972;51.784;4.660;2024-02-26T10:31:13;2.45;;;2.00;;
83099;SDS011;72972;51.784;4.660;2024-02-26T10:33:40;2.03;;;1.83;;
83099;SDS011;72972;51.784;4.660;2024-02-26T10:36:08;1.70;;;1.50;;
83099;SDS011;72972;51.784;4.660;2024-02-26T10:38:34;1.88;;;1.75;;
83099;SDS011;72972;51.784;4.660;2024-02-26T10:41:01;2.08;;;1.88;;
83099;SDS011;72972;51.784;4.660;2024-02-26T10:43:38;2.47;;;2.05;;
83099;SDS011;72972;51.784;4.660;2024-02-26T10:46:04;1.73;;;1.63;;
83099;SDS011;72972;51.784;4.660;2024-02-26T10:48:30;1.90;;;1.70;;
83099;SDS011;72972;51.784;4.660;2024-02-26T10:50:56;1.55;;;1.45;;
83099;SDS011;72972;51.784;4.660;2024-02-26T10:53:23;1.60;;;1.50;;
83099;SDS011;72972;51.784;4.660;2024-02-26T10:55:54;1.80;;;1.70;;
83099;SDS011;72972;51.784;4.660;2024-02-26T10:58:22;1.98;;;1.77;;
83099;SDS011;72972;51.784;4.660;2024-02-26T11:00:53;1.92;;;1.73;;
83099;SDS011;72972;51.784;4.660;2024-02-26T11:03:22;1.75;;;1.65;;
83099;SDS011;72972;51.784;4.660;2024-02-26T11:05:48;1.77;;;1.63;;
83099;SDS011;72972;51.784;4.660;2024-02-26T11:08:18;1.75;;;1.42;;
83099;SDS011;72972;51.784;4.660;2024-02-26T11:10:47;1.55;;;1.33;;
83099;SDS011;72972;51.784;4.660;2024-02-26T11:13:14;1.73;;;1.52;;
83099;SDS011;72972;51.784;4.660;2024-02-26T11:15:42;1.67;;;1.50;;
83099;SDS011;72972;51.784;4.660;2024-02-26T11:18:09;2.00;;;1.80;;
83099;SDS011;72972;51.784;4.660;2024-02-26T11:20:38;1.98;;;1.77;;
83099;SDS011;72972;51.784;4.660;2024-02-26T11:23:06;2.03;;;1.73;;
83099;SDS011;72972;51.784;4.660;2024-02-26T11:25:32;1.90;;;1.70;;
83099;SDS011;72972;51.784;4.660;2024-02-26T11:27:59;2.33;;;2.10;;
83099;SDS011;72972;51.784;4.660;2024-02-26T11:30:47;2.15;;;1.80;;
83099;SDS011;72972;51.784;4.660;2024-02-26T11:33:15;2.20;;;1.63;;
83099;SDS011;72972;51.784;4.660;2024-02-26T11:35:40;1.50;;;1.40;;
83099;SDS011;72972;51.784;4.660;2024-02-26T11:38:07;1.67;;;1.58;;
83099;SDS011;72972;51.784;4.660;2024-02-26T11:40:33;1.98;;;1.77;;
83099;SDS011;72972;51.784;4.660;2024-02-26T11:43:06;1.55;;;1.40;;
83099;SDS011;72972;51.784;4.660;2024-02-26T11:48:21;1.70;;;1.60;;
83099;SDS011;72972;51.784;4.660;2024-02-26T11:50:52;2.47;;;2.28;;
83099;SDS011;72972;51.784;4.660;2024-02-26T11:53:28;1.90;;;1.70;;
83099;SDS011;72972;51.784;4.660;2024-02-26T11:59:08;1.70;;;1.50;;
83099;SDS011;72972;51.784;4.660;2024-02-26T12:01:37;1.70;;;1.60;;
83099;SDS011;72972;51.784;4.660;2024-02-26T12:04:08;2.00;;;1.80;;
83099;SDS011;72972;51.784;4.660;2024-02-26T12:06:41;2.10;;;1.90;;
83099;SDS011;72972;51.784;4.660;2024-02-26T12:09:08;2.08;;;1.88;;
83099;SDS011;72972;51.784;4.660;2024-02-26T12:11:37;1.98;;;1.77;;
83099;SDS011;72972;51.784;4.660;2024-02-26T12:14:05;1.75;;;1.50;;
83099;SDS011;72972;51.784;4.660;2024-02-26T12:16:39;1.42;;;1.33;;
83099;SDS011;72972;51.784;4.660;2024-02-26T12:19:08;1.83;;;1.67;;
83099;SDS011;72972;51.784;4.660;2024-02-26T12:21:35;1.63;;;1.52;;
83099;SDS011;72972;51.784;4.660;2024-02-26T12:24:12;2.00;;;1.80;;
83099;SDS011;72972;51.784;4.660;2024-02-26T12:26:43;2.03;;;1.80;;
83099;SDS011;72972;51.784;4.660;2024-02-26T12:29:09;2.15;;;1.80;;
83099;SDS011;72972;51.784;4.660;2024-02-26T12:31:36;1.63;;;1.52;;
83099;SDS011;72972;51.784;4.660;2024-02-26T12:34:03;1.73;;;1.63;;
83099;SDS011;72972;51.784;4.660;2024-02-26T12:36:30;2.25;;;1.90;;
83099;SDS011;72972;51.784;4.660;2024-02-26T12:38:56;1.80;;;1.63;;
83099;SDS011;72972;51.784;4.660;2024-02-26T12:41:22;2.17;;;1.85;;
83099;SDS011;72972;51.784;4.660;2024-02-26T12:43:48;1.58;;;1.42;;
83099;SDS011;72972;51.784;4.660;2024-02-26T12:46:14;1.80;;;1.70;;
83099;SDS011;72972;51.784;4.660;2024-02-26T12:48:44;2.15;;;1.95;;
83099;SDS011;72972;51.784;4.660;2024-02-26T12:51:11;1.90;;;1.70;;
83099;SDS011;72972;51.784;4.660;2024-02-26T12:53:38;2.75;;;1.95;;
83099;SDS011;72972;51.784;4.660;2024-02-26T12:56:04;2.15;;;1.95;;
83099;SDS011;72972;51.784;4.660;2024-02-26T12:58:33;2.05;;;1.85;;
83099;SDS011;72972;51.784;4.660;2024-02-26T13:01:00;2.10;;;1.83;;
83099;SDS011;72972;51.784;4.660;2024-02-26T13:03:27;2.15;;;1.95;;
83099;SDS011;72972;51.784;4.660;2024-02-26T13:05:53;2.10;;;1.90;;
83099;SDS011;72972;51.784;4.660;2024-02-26T13:08:20;2.00;;;1.80;;
83099;SDS011;72972;51.784;4.660;2024-02-26T13:10:46;2.20;;;1.92;;
83099;SDS011;72972;51.784;4.660;2024-02-26T13:13:16;2.00;;;1.80;;
83099;SDS011;72972;51.784;4.660;2024-02-26T13:15:43;2.15;;;1.95;;
83099;SDS011;72972;51.784;4.660;2024-02-26T13:18:13;2.03;;;1.83;;
83099;SDS011;72972;51.784;4.660;2024-02-26T13:20:40;1.95;;;1.75;;
83099;SDS011;72972;51.784;4.660;2024-02-26T13:23:07;1.98;;;1.88;;
83099;SDS011;72972;51.784;4.660;2024-02-26T13:25:39;2.20;;;1.90;;
83099;SDS011;72972;51.784;4.660;2024-02-26T13:28:06;2.00;;;1.80;;
83099;SDS011;72972;51.784;4.660;2024-02-26T13:30:35;1.88;;;1.67;;
83099;SDS011;72972;51.784;4.660;2024-02-26T13:33:11;2.08;;;1.67;;
83099;SDS011;72972;51.784;4.660;2024-02-26T13:35:37;1.65;;;1.55;;
83099;SDS011;72972;51.784;4.660;2024-02-26T13:38:07;2.17;;;1.98;;
83099;SDS011;72972;51.784;4.660;2024-02-26T13:40:33;1.88;;;1.65;;
83099;SDS011;72972;51.784;4.660;2024-02-26T13:43:02;1.73;;;1.63;;
83099;SDS011;72972;51.784;4.660;2024-02-26T13:45:28;3.05;;;2.00;;
83099;SDS011;72972;51.784;4.660;2024-02-26T13:47:53;1.80;;;1.67;;
83099;SDS011;72972;51.784;4.660;2024-02-26T13:50:19;1.77;;;1.67;;
83099;SDS011;72972;51.784;4.660;2024-02-26T13:52:48;2.03;;;1.83;;
83099;SDS011;72972;51.784;4.660;2024-02-26T13:57:44;2.00;;;1.80;;
83099;SDS011;72972;51.784;4.660;2024-02-26T14:03:01;1.95;;;1.70;;
83099;SDS011;72972;51.784;4.660;2024-02-26T14:05:27;1.65;;;1.55;;
83099;SDS011;72972;51.784;4.660;2024-02-26T14:07:54;2.00;;;1.70;;
83099;SDS011;72972;51.784;4.660;2024-02-26T14:10:21;1.58;;;1.48;;
83099;SDS011;72972;51.784;4.660;2024-02-26T14:12:46;1.98;;;1.77;;
83099;SDS011;72972;51.784;4.660;2024-02-26T14:15:12;2.20;;;2.00;;
83099;SDS011;72972;51.784;4.660;2024-02-26T14:17:38;2.03;;;1.83;;
83099;SDS011;72972;51.784;4.660;2024-02-26T14:20:04;2.28;;;1.90;;
83099;SDS011;72972;51.784;4.660;2024-02-26T14:22:30;1.70;;;1.50;;
83099;SDS011;72972;51.784;4.660;2024-02-26T14:24:56;1.63;;;1.52;;
83099;SDS011;72972;51.784;4.660;2024-02-26T14:27:22;2.08;;;1.70;;
83099;SDS011;72972;51.784;4.660;2024-02-26T14:29:48;2.08;;;1.88;;
83099;SDS011;72972;51.784;4.660;2024-02-26T14:32:14;1.70;;;1.60;;
83099;SDS011;72972;51.784;4.660;2024-02-26T14:34:40;1.90;;;1.70;;
83099;SDS011;72972;51.784;4.660;2024-02-26T14:37:06;1.65;;;1.50;;
83099;SDS011;72972;51.784;4.660;2024-02-26T14:39:32;1.60;;;1.50;;
83099;SDS011;72972;51.784;4.660;2024-02-26T14:41:59;1.95;;;1.75;;
83099;SDS011;72972;51.784;4.660;2024-02-26T14:44:25;3.60;;;1.98;;
83099;SDS011;72972;51.784;4.660;2024-02-26T14:46:51;1.73;;;1.48;;
83099;SDS011;72972;51.784;4.660;2024-02-26T14:49:17;1.90;;;1.70;;
83099;SDS011;72972;51.784;4.660;2024-02-26T14:51:43;2.10;;;1.90;;
83099;SDS011;72972;51.784;4.660;2024-02-26T14:54:10;1.63;;;1.52;;
83099;SDS011;72972;51.784;4.660;2024-02-26T14:56:36;1.70;;;1.60;;